createdAt,value
2018-11-10T00:00:59.138Z,0.00
2018-11-10T00:01:59.163Z,0.00
2018-11-10T00:02:59.190Z,0.00
2018-11-10T00:03:59.230Z,0.00
2018-11-10T00:04:59.242Z,0.00
2018-11-10T00:05:59.266Z,0.00
2018-11-10T00:06:59.297Z,0.00
2018-11-10T00:07:59.376Z,0.00
2018-11-10T00:08:59.343Z,0.00
2018-11-10T00:09:59.371Z,0.00
2018-11-10T00:10:59.395Z,0.00
2018-11-10T00:11:59.420Z,0.00
2018-11-10T00:12:59.446Z,0.00
2018-11-10T00:13:59.472Z,0.00
2018-11-10T00:14:59.503Z,0.00
2018-11-10T00:15:59.524Z,0.00
2018-11-10T00:16:59.549Z,0.00
2018-11-10T00:17:59.574Z,0.00
2018-11-10T00:18:59.601Z,0.00
2018-11-10T00:19:59.625Z,0.00
2018-11-10T00:20:59.652Z,0.00
2018-11-10T00:21:59.677Z,0.00
2018-11-10T00:22:59.706Z,0.00
2018-11-10T00:23:59.729Z,0.00
2018-11-10T00:24:59.756Z,0.00
2018-11-10T00:25:59.781Z,0.00
2018-11-10T00:26:59.807Z,0.00
2018-11-10T00:27:59.934Z,0.00
2018-11-10T00:28:59.858Z,0.00
2018-11-10T00:29:59.884Z,0.00
2018-11-10T00:30:59.911Z,0.00
2018-11-10T00:31:59.935Z,0.00
2018-11-10T00:32:59.961Z,0.00
2018-11-10T00:33:59.986Z,0.00
2018-11-10T00:35:00.013Z,0.00
2018-11-10T00:36:00.039Z,0.00
2018-11-10T00:37:00.064Z,0.00
2018-11-10T00:38:00.090Z,0.00
2018-11-10T00:39:00.115Z,0.00
2018-11-10T00:40:00.142Z,0.00
2018-11-10T00:41:00.166Z,0.00
2018-11-10T00:42:00.192Z,0.00
2018-11-10T00:43:00.218Z,0.00
2018-11-10T00:44:00.245Z,0.00
2018-11-10T00:45:00.273Z,0.00
2018-11-10T00:46:00.295Z,0.00
2018-11-10T00:47:00.321Z,0.00
2018-11-10T00:48:00.346Z,0.00
2018-11-10T00:49:00.372Z,0.00
2018-11-10T00:50:00.398Z,0.00
2018-11-10T00:51:00.423Z,0.00
2018-11-10T00:52:00.448Z,0.00
2018-11-10T00:53:00.474Z,0.00
2018-11-10T00:54:00.499Z,0.00
2018-11-10T00:55:00.529Z,0.00
2018-11-10T00:56:00.550Z,0.00
2018-11-10T00:57:00.580Z,0.00
2018-11-10T00:58:00.603Z,0.00
2018-11-10T00:59:00.628Z,0.00
2018-11-10T01:00:00.653Z,0.00
2018-11-10T01:01:00.679Z,0.00
2018-11-10T01:02:00.704Z,0.00
2018-11-10T01:03:00.731Z,0.00
2018-11-10T01:04:00.756Z,0.00
2018-11-10T01:05:00.781Z,0.00
2018-11-10T01:06:00.808Z,0.00
2018-11-10T01:07:00.835Z,0.00
2018-11-10T01:08:00.866Z,0.00
2018-11-10T01:09:00.884Z,0.00
2018-11-10T01:10:00.911Z,0.00
2018-11-10T01:11:00.937Z,0.00
2018-11-10T01:12:00.960Z,0.00
2018-11-10T01:13:00.986Z,0.00
2018-11-10T01:14:01.013Z,0.00
2018-11-10T01:15:01.037Z,0.00
2018-11-10T01:16:01.063Z,0.00
2018-11-10T01:17:01.090Z,0.00
2018-11-10T01:18:01.114Z,0.00
2018-11-10T01:19:01.140Z,0.00
2018-11-10T01:20:01.165Z,0.00
2018-11-10T01:21:01.194Z,0.00
2018-11-10T01:22:01.219Z,0.00
2018-11-10T01:23:01.242Z,0.00
2018-11-10T01:24:01.268Z,0.00
2018-11-10T01:25:01.295Z,0.00
2018-11-10T01:26:01.319Z,0.00
2018-11-10T01:27:01.347Z,0.00
2018-11-10T01:28:01.474Z,0.00
2018-11-10T01:29:01.396Z,0.00
2018-11-10T01:30:01.421Z,0.00
2018-11-10T01:31:01.455Z,0.00
2018-11-10T01:32:01.472Z,0.00
2018-11-10T01:33:01.509Z,0.00
2018-11-10T01:34:01.524Z,0.00
2018-11-10T01:35:01.549Z,0.00
2018-11-10T01:36:01.577Z,0.00
2018-11-10T01:37:01.601Z,0.00
2018-11-10T01:38:01.627Z,0.00
2018-11-10T01:39:01.659Z,0.00
2018-11-10T01:40:01.677Z,0.00
2018-11-10T01:41:01.703Z,0.00
2018-11-10T01:42:01.730Z,0.00
2018-11-10T01:43:01.754Z,0.00
2018-11-10T01:44:01.779Z,0.00
2018-11-10T01:45:01.806Z,0.00
2018-11-10T01:46:01.831Z,0.00
2018-11-10T01:47:01.862Z,0.00
2018-11-10T01:48:01.882Z,0.00
2018-11-10T01:49:01.907Z,0.00
2018-11-10T01:50:01.936Z,0.00
2018-11-10T01:51:01.960Z,0.00
2018-11-10T01:52:01.984Z,0.00
2018-11-10T01:53:02.010Z,0.00
2018-11-10T01:54:02.036Z,0.00
2018-11-10T01:55:02.063Z,0.00
2018-11-10T01:56:02.090Z,0.00
2018-11-10T01:57:02.112Z,0.00
2018-11-10T01:58:02.138Z,0.00
2018-11-10T01:59:02.167Z,0.00
2018-11-10T02:00:02.189Z,0.00
2018-11-10T02:01:02.215Z,0.00
2018-11-10T02:02:02.241Z,0.00
2018-11-10T02:03:02.267Z,0.00
2018-11-10T02:04:02.293Z,0.00
2018-11-10T02:05:02.318Z,0.00
2018-11-10T02:06:02.345Z,0.00
2018-11-10T02:07:02.370Z,0.00
2018-11-10T02:08:02.395Z,0.00
2018-11-10T02:09:02.426Z,0.00
2018-11-10T02:10:02.461Z,0.00
2018-11-10T02:11:02.472Z,0.00
2018-11-10T02:12:02.498Z,0.00
2018-11-10T02:13:02.524Z,0.00
2018-11-10T02:14:02.551Z,0.00
2018-11-10T02:15:02.589Z,0.00
2018-11-10T02:16:02.601Z,0.00
2018-11-10T02:17:02.626Z,0.00
2018-11-10T02:18:02.654Z,0.00
2018-11-10T02:19:02.679Z,0.00
2018-11-10T02:20:02.704Z,0.00
2018-11-10T02:21:02.730Z,0.00
2018-11-10T02:22:02.755Z,0.00
2018-11-10T02:23:02.783Z,0.00
2018-11-10T02:24:02.807Z,0.00
2018-11-10T02:25:02.833Z,0.00
2018-11-10T02:26:02.858Z,0.00
2018-11-10T02:27:02.886Z,0.00
2018-11-10T02:28:02.910Z,0.00
2018-11-10T02:29:02.936Z,0.00
2018-11-10T02:30:02.962Z,0.00
2018-11-10T02:31:03.001Z,0.00
2018-11-10T02:32:03.013Z,0.00
2018-11-10T02:33:03.039Z,0.00
2018-11-10T02:34:03.065Z,0.00
2018-11-10T02:35:03.092Z,0.00
2018-11-10T02:36:03.116Z,0.00
2018-11-10T02:37:03.142Z,0.00
2018-11-10T02:38:03.168Z,0.00
2018-11-10T02:39:03.194Z,0.00
2018-11-10T02:40:03.219Z,0.00
2018-11-10T02:41:03.246Z,0.00
2018-11-10T02:42:03.272Z,0.00
2018-11-10T02:43:03.298Z,0.00
2018-11-10T02:44:03.323Z,0.00
2018-11-10T02:45:03.349Z,0.00
2018-11-10T02:46:03.375Z,0.00
2018-11-10T02:47:03.402Z,0.00
2018-11-10T02:48:03.427Z,0.00
2018-11-10T02:49:03.452Z,0.00
2018-11-10T02:50:03.478Z,0.00
2018-11-10T02:51:03.505Z,0.00
2018-11-10T02:52:03.530Z,0.00
2018-11-10T02:53:03.557Z,0.00
2018-11-10T02:54:03.582Z,0.00
2018-11-10T02:55:03.608Z,0.00
2018-11-10T02:56:03.635Z,0.00
2018-11-10T02:57:03.659Z,0.00
2018-11-10T02:58:03.685Z,0.00
2018-11-10T02:59:03.712Z,0.00
2018-11-10T03:00:03.737Z,0.00
2018-11-10T03:01:03.763Z,0.00
2018-11-10T03:02:03.790Z,0.00
2018-11-10T03:03:03.816Z,0.00
2018-11-10T03:04:03.841Z,0.00
2018-11-10T03:05:03.867Z,0.00
2018-11-10T03:06:03.896Z,0.00
2018-11-10T03:07:03.920Z,0.00
2018-11-10T03:08:03.948Z,0.00
2018-11-10T03:09:03.971Z,0.00
2018-11-10T03:10:03.998Z,0.00
2018-11-10T03:11:04.023Z,0.00
2018-11-10T03:12:04.048Z,0.00
2018-11-10T03:13:04.074Z,0.00
2018-11-10T03:14:04.103Z,0.00
2018-11-10T03:15:04.127Z,0.00
2018-11-10T03:16:04.152Z,0.00
2018-11-10T03:17:04.178Z,0.00
2018-11-10T03:18:04.204Z,0.00
2018-11-10T03:19:04.231Z,0.00
2018-11-10T03:20:04.256Z,0.00
2018-11-10T03:21:04.281Z,0.00
2018-11-10T03:22:04.311Z,0.00
2018-11-10T03:23:04.334Z,0.00
2018-11-10T03:24:04.361Z,0.00
2018-11-10T03:25:04.388Z,0.00
2018-11-10T03:26:04.412Z,0.00
2018-11-10T03:27:04.439Z,0.00
2018-11-10T03:28:04.463Z,0.00
2018-11-10T03:29:04.489Z,0.00
2018-11-10T03:30:04.515Z,0.00
2018-11-10T03:31:04.542Z,0.00
2018-11-10T03:32:04.567Z,0.00
2018-11-10T03:33:04.594Z,0.00
2018-11-10T03:34:04.620Z,0.00
2018-11-10T03:35:04.650Z,0.00
2018-11-10T03:36:04.671Z,0.00
2018-11-10T03:37:04.697Z,0.00
2018-11-10T03:38:04.724Z,0.00
2018-11-10T03:39:04.751Z,0.00
2018-11-10T03:40:04.775Z,0.00
2018-11-10T03:41:04.803Z,0.00
2018-11-10T03:42:04.828Z,0.00
2018-11-10T03:43:04.854Z,0.00
2018-11-10T03:44:04.880Z,0.00
2018-11-10T03:45:04.906Z,0.00
2018-11-10T03:46:04.932Z,0.00
2018-11-10T03:47:04.966Z,0.00
2018-11-10T03:48:04.987Z,0.00
2018-11-10T03:49:05.011Z,0.00
2018-11-10T03:50:05.037Z,0.00
2018-11-10T03:51:05.065Z,0.00
2018-11-10T03:52:05.089Z,0.00
2018-11-10T03:53:05.116Z,0.00
2018-11-10T03:54:05.144Z,0.00
2018-11-10T03:55:05.169Z,0.00
2018-11-10T03:56:05.193Z,0.00
2018-11-10T03:57:05.220Z,0.00
2018-11-10T03:58:05.251Z,0.00
2018-11-10T03:59:05.273Z,0.00
2018-11-10T04:00:05.298Z,0.00
2018-11-10T04:01:05.325Z,0.00
2018-11-10T04:02:05.354Z,0.00
2018-11-10T04:03:05.378Z,0.00
2018-11-10T04:04:05.407Z,0.00
2018-11-10T04:05:05.430Z,0.00
2018-11-10T04:06:05.456Z,0.00
2018-11-10T04:07:05.484Z,0.00
2018-11-10T04:08:05.509Z,0.00
2018-11-10T04:09:05.535Z,0.00
2018-11-10T04:10:05.564Z,0.00
2018-11-10T04:11:05.588Z,0.00
2018-11-10T04:12:05.613Z,0.00
2018-11-10T04:13:05.640Z,0.00
2018-11-10T04:14:05.669Z,0.00
2018-11-10T04:15:07.109Z,0.00
2018-11-10T04:16:05.715Z,0.00
2018-11-10T04:17:05.742Z,0.00
2018-11-10T04:18:05.767Z,0.00
2018-11-10T04:19:05.795Z,0.00
2018-11-10T04:20:05.819Z,0.00
2018-11-10T04:21:05.849Z,0.00
2018-11-10T04:22:05.874Z,0.00
2018-11-10T04:23:05.899Z,0.00
2018-11-10T04:24:05.924Z,0.00
2018-11-10T04:25:05.951Z,0.00
2018-11-10T04:26:05.977Z,0.00
2018-11-10T04:27:06.011Z,0.00
2018-11-10T04:28:06.030Z,0.00
2018-11-10T04:29:06.056Z,0.00
2018-11-10T04:30:06.083Z,0.00
2018-11-10T04:31:06.110Z,0.00
2018-11-10T04:32:06.147Z,0.00
2018-11-10T04:33:06.165Z,0.00
2018-11-10T04:34:06.188Z,0.00
2018-11-10T04:35:06.215Z,0.00
2018-11-10T04:36:06.240Z,0.00
2018-11-10T04:37:06.268Z,0.00
2018-11-10T04:38:06.296Z,0.00
2018-11-10T04:39:06.321Z,0.00
2018-11-10T04:40:06.346Z,0.00
2018-11-10T04:41:06.372Z,0.00
2018-11-10T04:42:06.399Z,0.00
2018-11-10T04:43:06.425Z,0.00
2018-11-10T04:44:06.451Z,0.00
2018-11-10T04:45:06.477Z,0.00
2018-11-10T04:46:06.504Z,0.00
2018-11-10T04:47:06.530Z,0.00
2018-11-10T04:48:06.558Z,0.00
2018-11-10T04:49:06.583Z,0.00
2018-11-10T04:50:06.609Z,0.00
2018-11-10T04:51:06.636Z,0.00
2018-11-10T04:52:06.661Z,0.00
2018-11-10T04:53:06.689Z,0.00
2018-11-10T04:54:06.715Z,0.00
2018-11-10T04:55:06.741Z,0.00
2018-11-10T04:56:06.768Z,0.00
2018-11-10T04:57:06.796Z,0.00
2018-11-10T04:58:06.820Z,0.00
2018-11-10T04:59:06.847Z,0.00
2018-11-10T05:00:06.873Z,0.00
2018-11-10T05:01:06.900Z,0.00
2018-11-10T05:02:06.926Z,0.00
2018-11-10T05:03:06.953Z,0.00
2018-11-10T05:04:06.979Z,0.00
2018-11-10T05:05:07.005Z,0.00
2018-11-10T05:06:07.032Z,0.00
2018-11-10T05:07:07.059Z,0.00
2018-11-10T05:08:07.085Z,0.00
2018-11-10T05:09:07.112Z,0.00
2018-11-10T05:10:07.141Z,0.00
2018-11-10T05:11:07.164Z,0.00
2018-11-10T05:12:07.191Z,0.00
2018-11-10T05:13:07.217Z,0.00
2018-11-10T05:14:07.244Z,0.00
2018-11-10T05:15:07.270Z,0.00
2018-11-10T05:16:07.296Z,0.00
2018-11-10T05:17:07.323Z,0.00
2018-11-10T05:18:07.349Z,0.00
2018-11-10T05:19:07.376Z,0.00
2018-11-10T05:20:07.402Z,0.00
2018-11-10T05:21:07.428Z,0.00
2018-11-10T05:22:07.455Z,0.00
2018-11-10T05:23:07.482Z,0.00
2018-11-10T05:24:07.511Z,0.00
2018-11-10T05:25:07.534Z,0.00
2018-11-10T05:26:07.561Z,0.00
2018-11-10T05:27:07.589Z,0.00
2018-11-10T05:28:07.614Z,0.00
2018-11-10T05:29:07.640Z,0.00
2018-11-10T05:30:07.675Z,0.00
2018-11-10T05:31:07.759Z,0.00
2018-11-10T05:32:07.720Z,0.00
2018-11-10T05:33:07.747Z,0.00
2018-11-10T05:34:07.773Z,0.00
2018-11-10T05:35:07.847Z,0.00
2018-11-10T05:36:07.829Z,0.00
2018-11-10T05:37:07.852Z,0.00
2018-11-10T05:38:07.879Z,0.00
2018-11-10T05:39:07.907Z,0.00
2018-11-10T05:40:07.931Z,0.00
2018-11-10T05:41:07.959Z,0.00
2018-11-10T05:42:07.985Z,0.00
2018-11-10T05:43:08.013Z,0.00
2018-11-10T05:44:08.038Z,0.00
2018-11-10T05:45:08.064Z,0.00
2018-11-10T05:46:08.092Z,0.00
2018-11-10T05:47:08.122Z,0.00
2018-11-10T05:48:08.145Z,0.00
2018-11-10T05:49:08.171Z,0.00
2018-11-10T05:50:08.199Z,0.00
2018-11-10T05:51:08.224Z,0.00
2018-11-10T05:52:08.254Z,0.00
2018-11-10T05:53:08.278Z,0.00
2018-11-10T05:54:08.304Z,0.00
2018-11-10T05:55:08.331Z,0.00
2018-11-10T05:56:08.356Z,0.00
2018-11-10T05:57:08.437Z,0.00
2018-11-10T05:58:08.410Z,0.00
2018-11-10T05:59:08.438Z,0.00
2018-11-10T06:00:08.462Z,0.00
2018-11-10T06:01:08.490Z,0.00
2018-11-10T06:02:08.516Z,0.00
2018-11-10T06:03:08.576Z,0.00
2018-11-10T06:04:08.569Z,0.00
2018-11-10T06:05:08.596Z,0.00
2018-11-10T06:06:08.624Z,0.00
2018-11-10T06:07:08.651Z,0.00
2018-11-10T06:08:08.675Z,0.00
2018-11-10T06:09:08.731Z,0.00
2018-11-10T06:10:08.888Z,0.00
2018-11-10T06:11:08.757Z,0.00
2018-11-10T06:12:08.783Z,4.00
2018-11-10T06:13:08.813Z,4.00
2018-11-10T06:14:08.839Z,4.00
2018-11-10T06:15:08.862Z,0.00
2018-11-10T06:16:08.999Z,0.00
2018-11-10T06:17:08.915Z,4.00
2018-11-10T06:18:08.941Z,4.00
2018-11-10T06:19:08.968Z,4.00
2018-11-10T06:20:08.998Z,4.00
2018-11-10T06:21:09.021Z,4.00
2018-11-10T06:22:09.049Z,8.00
2018-11-10T06:23:09.075Z,8.00
2018-11-10T06:24:09.100Z,8.00
2018-11-10T06:25:09.129Z,8.00
2018-11-10T06:26:09.251Z,12.00
2018-11-10T06:27:09.181Z,12.00
2018-11-10T06:28:09.207Z,12.00
2018-11-10T06:29:09.234Z,16.00
2018-11-10T06:30:09.261Z,16.00
2018-11-10T06:31:09.288Z,16.00
2018-11-10T06:32:09.313Z,16.00
2018-11-10T06:33:09.341Z,16.00
2018-11-10T06:34:09.368Z,24.00
2018-11-10T06:35:09.393Z,24.00
2018-11-10T06:36:09.420Z,28.00
2018-11-10T06:37:09.450Z,28.00
2018-11-10T06:38:09.481Z,36.00
2018-11-10T06:39:09.503Z,36.00
2018-11-10T06:40:09.527Z,40.00
2018-11-10T06:41:09.561Z,40.00
2018-11-10T06:42:09.580Z,44.00
2018-11-10T06:43:09.608Z,48.00
2018-11-10T06:44:09.633Z,52.00
2018-11-10T06:45:09.661Z,56.00
2018-11-10T06:46:09.687Z,60.00
2018-11-10T06:47:09.807Z,68.00
2018-11-10T06:48:09.740Z,72.00
2018-11-10T06:49:09.766Z,80.00
2018-11-10T06:50:09.796Z,84.00
2018-11-10T06:51:09.821Z,92.00
2018-11-10T06:52:09.847Z,96.00
2018-11-10T06:53:09.877Z,92.00
2018-11-10T06:54:09.900Z,92.00
2018-11-10T06:55:09.928Z,92.00
2018-11-10T06:56:09.953Z,96.00
2018-11-10T06:57:09.981Z,100.00
2018-11-10T06:58:10.007Z,100.00
2018-11-10T06:59:10.038Z,104.00
2018-11-10T07:00:10.063Z,112.00
2018-11-10T07:01:10.087Z,116.00
2018-11-10T07:02:10.115Z,124.00
2018-11-10T07:03:10.173Z,128.00
2018-11-10T07:04:10.169Z,128.00
2018-11-10T07:05:10.195Z,128.00
2018-11-10T07:06:10.224Z,132.00
2018-11-10T07:07:10.249Z,136.00
2018-11-10T07:08:10.274Z,144.00
2018-11-10T07:09:10.316Z,156.00
2018-11-10T07:10:10.339Z,172.00
2018-11-10T07:11:10.355Z,184.00
2018-11-10T07:12:10.387Z,192.00
2018-11-10T07:13:10.408Z,204.00
2018-11-10T07:14:10.437Z,212.00
2018-11-10T07:15:10.463Z,224.00
2018-11-10T07:16:10.488Z,240.00
2018-11-10T07:17:10.517Z,260.00
2018-11-10T07:18:10.624Z,284.00
2018-11-10T07:19:10.570Z,320.00
2018-11-10T07:20:10.595Z,360.00
2018-11-10T07:21:10.621Z,400.00
2018-11-10T07:22:10.649Z,440.00
2018-11-10T07:23:10.675Z,484.00
2018-11-10T07:24:10.701Z,528.00
2018-11-10T07:25:10.825Z,552.00
2018-11-10T07:26:10.759Z,568.00
2018-11-10T07:27:10.784Z,576.00
2018-11-10T07:28:10.809Z,572.00
2018-11-10T07:29:10.836Z,568.00
2018-11-10T07:30:10.864Z,560.00
2018-11-10T07:31:10.889Z,548.00
2018-11-10T07:32:10.915Z,548.00
2018-11-10T07:33:10.942Z,560.00
2018-11-10T07:34:10.969Z,564.00
2018-11-10T07:35:10.997Z,564.00
2018-11-10T07:36:11.022Z,564.00
2018-11-10T07:37:11.063Z,560.00
2018-11-10T07:38:11.077Z,560.00
2018-11-10T07:39:11.104Z,544.00
2018-11-10T07:40:11.129Z,532.00
2018-11-10T07:41:11.208Z,516.00
2018-11-10T07:42:11.184Z,512.00
2018-11-10T07:43:11.301Z,512.00
2018-11-10T07:44:11.237Z,500.00
2018-11-10T07:45:11.288Z,484.00
2018-11-10T07:46:11.289Z,460.00
2018-11-10T07:47:11.316Z,448.00
2018-11-10T07:48:11.343Z,444.00
2018-11-10T07:49:11.371Z,456.00
2018-11-10T07:50:11.399Z,476.00
2018-11-10T07:51:11.430Z,496.00
2018-11-10T07:52:11.449Z,516.00
2018-11-10T07:53:11.476Z,548.00
2018-11-10T07:54:11.501Z,580.00
2018-11-10T07:55:11.528Z,620.00
2018-11-10T07:56:11.554Z,668.00
2018-11-10T07:57:11.583Z,716.00
2018-11-10T07:58:11.608Z,756.00
2018-11-10T07:59:11.637Z,796.00
2018-11-10T08:00:11.660Z,812.00
2018-11-10T08:01:11.688Z,840.00
2018-11-10T08:02:11.715Z,904.00
2018-11-10T08:03:11.741Z,980.00
2018-11-10T08:04:11.810Z,1068.00
2018-11-10T08:05:11.795Z,1124.00
2018-11-10T08:06:11.822Z,1152.00
2018-11-10T08:07:11.847Z,1180.00
2018-11-10T08:08:11.873Z,1264.00
2018-11-10T08:09:11.901Z,1356.00
2018-11-10T08:10:11.934Z,1456.00
2018-11-10T08:11:11.954Z,1564.00
2018-11-10T08:12:11.978Z,1676.00
2018-11-10T08:13:12.006Z,1800.00
2018-11-10T08:14:14.657Z,1876.00
2018-11-10T08:15:12.061Z,1896.00
2018-11-10T08:16:12.083Z,1840.00
2018-11-10T08:17:12.111Z,1728.00
2018-11-10T08:18:12.137Z,1628.00
2018-11-10T08:19:12.164Z,1588.00
2018-11-10T08:20:12.189Z,1620.00
2018-11-10T08:21:12.216Z,1708.00
2018-11-10T08:22:12.243Z,1740.00
2018-11-10T08:23:12.269Z,1756.00
2018-11-10T08:24:12.297Z,1880.00
2018-11-10T08:25:12.577Z,1916.00
2018-11-10T08:26:12.349Z,1872.00
2018-11-10T08:27:12.377Z,1760.00
2018-11-10T08:28:12.401Z,1684.00
2018-11-10T08:29:12.428Z,1640.00
2018-11-10T08:30:12.458Z,1568.00
2018-11-10T08:31:12.540Z,1476.00
2018-11-10T08:32:12.508Z,1388.00
2018-11-10T08:33:12.534Z,1396.00
2018-11-10T08:34:12.562Z,1484.00
2018-11-10T08:35:12.588Z,1568.00
2018-11-10T08:36:12.613Z,1612.00
2018-11-10T08:37:12.641Z,1652.00
2018-11-10T08:38:12.667Z,1632.00
2018-11-10T08:39:12.753Z,1556.00
2018-11-10T08:40:12.720Z,1420.00
2018-11-10T08:41:12.747Z,1284.00
2018-11-10T08:42:12.773Z,1176.00
2018-11-10T08:43:12.800Z,1092.00
2018-11-10T08:44:12.830Z,1016.00
2018-11-10T08:45:12.857Z,976.00
2018-11-10T08:46:12.879Z,952.00
2018-11-10T08:47:12.906Z,928.00
2018-11-10T08:48:12.933Z,932.00
2018-11-10T08:49:12.995Z,932.00
2018-11-10T08:50:12.986Z,944.00
2018-11-10T08:51:13.012Z,928.00
2018-11-10T08:52:13.038Z,912.00
2018-11-10T08:53:13.066Z,912.00
2018-11-10T08:54:13.092Z,892.00
2018-11-10T08:55:13.119Z,848.00
2018-11-10T08:56:13.144Z,824.00
2018-11-10T08:57:13.175Z,836.00
2018-11-10T08:58:13.198Z,856.00
2018-11-10T08:59:13.339Z,876.00
2018-11-10T09:00:13.255Z,920.00
2018-11-10T09:01:13.281Z,944.00
2018-11-10T09:02:13.304Z,980.00
2018-11-10T09:03:13.331Z,1040.00
2018-11-10T09:04:13.357Z,1148.00
2018-11-10T09:05:13.383Z,1248.00
2018-11-10T09:06:13.412Z,1320.00
2018-11-10T09:07:13.437Z,1332.00
2018-11-10T09:08:13.463Z,1392.00
2018-11-10T09:09:13.490Z,1432.00
2018-11-10T09:10:13.521Z,1488.00
2018-11-10T09:11:13.544Z,1580.00
2018-11-10T09:12:13.574Z,1660.00
2018-11-10T09:13:13.677Z,1672.00
2018-11-10T09:14:13.624Z,1616.00
2018-11-10T09:15:13.732Z,1508.00
2018-11-10T09:16:13.679Z,1492.00
2018-11-10T09:17:13.703Z,1468.00
2018-11-10T09:18:13.730Z,1460.00
2018-11-10T09:19:13.757Z,1456.00
2018-11-10T09:20:13.782Z,1560.00
2018-11-10T09:21:13.864Z,1672.00
2018-11-10T09:22:13.840Z,1736.00
2018-11-10T09:23:13.863Z,1768.00
2018-11-10T09:24:13.889Z,1912.00
2018-11-10T09:25:13.916Z,2056.00
2018-11-10T09:26:13.944Z,2212.00
2018-11-10T09:27:13.975Z,2272.00
2018-11-10T09:28:13.996Z,2088.00
2018-11-10T09:29:14.024Z,1936.00
2018-11-10T09:30:14.053Z,1904.00
2018-11-10T09:31:14.084Z,1832.00
2018-11-10T09:32:14.110Z,1788.00
2018-11-10T09:33:14.134Z,1824.00
2018-11-10T09:34:14.159Z,1864.00
2018-11-10T09:35:14.189Z,1936.00
2018-11-10T09:36:14.237Z,2052.00
2018-11-10T09:37:14.238Z,2176.00
2018-11-10T09:38:14.266Z,2084.00
2018-11-10T09:39:14.293Z,1940.00
2018-11-10T09:40:14.319Z,1804.00
2018-11-10T09:41:14.345Z,1720.00
2018-11-10T09:42:14.447Z,1660.00
2018-11-10T09:43:14.401Z,1584.00
2018-11-10T09:44:14.427Z,1532.00
2018-11-10T09:45:14.453Z,1448.00
2018-11-10T09:46:14.482Z,1456.00
2018-11-10T09:47:14.508Z,1460.00
2018-11-10T09:48:14.537Z,1388.00
2018-11-10T09:49:14.562Z,1348.00
2018-11-10T09:50:14.589Z,1380.00
2018-11-10T09:51:14.617Z,1432.00
2018-11-10T09:52:14.642Z,1456.00
2018-11-10T09:53:14.676Z,1480.00
2018-11-10T09:54:14.696Z,1524.00
2018-11-10T09:55:14.726Z,1612.00
2018-11-10T09:56:14.750Z,1676.00
2018-11-10T09:57:14.776Z,1712.00
2018-11-10T09:58:14.805Z,1744.00
2018-11-10T09:59:14.831Z,1772.00
2018-11-10T10:00:14.858Z,1820.00
2018-11-10T10:01:15.002Z,1924.00
2018-11-10T10:02:15.180Z,1928.00
2018-11-10T10:03:14.939Z,1776.00
2018-11-10T10:04:14.971Z,1660.00
2018-11-10T10:05:14.996Z,1624.00
2018-11-10T10:06:15.020Z,1676.00
2018-11-10T10:07:15.047Z,1884.00
2018-11-10T10:08:15.077Z,2220.00
2018-11-10T10:09:15.106Z,2500.00
2018-11-10T10:10:15.128Z,2568.00
2018-11-10T10:11:15.155Z,2520.00
2018-11-10T10:12:15.186Z,2444.00
2018-11-10T10:13:15.209Z,2460.00
2018-11-10T10:14:15.237Z,2600.00
2018-11-10T10:15:15.265Z,2696.00
2018-11-10T10:16:15.495Z,2680.00
2018-11-10T10:17:15.316Z,2576.00
2018-11-10T10:18:15.344Z,2468.00
2018-11-10T10:19:15.372Z,2432.00
2018-11-10T10:20:15.398Z,2460.00
2018-11-10T10:21:15.428Z,2476.00
2018-11-10T10:22:15.453Z,2480.00
2018-11-10T10:23:15.480Z,2532.00
2018-11-10T10:24:15.506Z,2608.00
2018-11-10T10:25:15.533Z,2728.00
2018-11-10T10:26:15.561Z,2972.00
2018-11-10T10:27:15.588Z,3192.00
2018-11-10T10:28:15.631Z,3240.00
2018-11-10T10:29:15.642Z,3132.00
2018-11-10T10:30:15.669Z,3076.00
2018-11-10T10:31:15.697Z,3132.00
2018-11-10T10:32:15.725Z,3140.00
2018-11-10T10:33:15.751Z,2948.00
2018-11-10T10:34:15.808Z,2780.00
2018-11-10T10:35:15.930Z,2732.00
2018-11-10T10:36:15.832Z,2752.00
2018-11-10T10:37:15.860Z,2772.00
2018-11-10T10:38:15.963Z,2844.00
2018-11-10T10:39:15.917Z,2804.00
2018-11-10T10:40:15.942Z,2728.00
2018-11-10T10:41:15.969Z,2624.00
2018-11-10T10:42:16.000Z,2552.00
2018-11-10T10:43:16.028Z,2536.00
2018-11-10T10:44:16.049Z,2544.00
2018-11-10T10:45:16.076Z,2548.00
2018-11-10T10:46:16.105Z,2508.00
2018-11-10T10:47:16.133Z,2432.00
2018-11-10T10:48:16.158Z,2276.00
2018-11-10T10:49:16.268Z,2080.00
2018-11-10T10:50:16.214Z,1976.00
2018-11-10T10:51:16.240Z,2028.00
2018-11-10T10:52:16.266Z,2204.00
2018-11-10T10:53:16.292Z,2336.00
2018-11-10T10:54:16.321Z,2332.00
2018-11-10T10:55:16.348Z,2456.00
2018-11-10T10:56:16.436Z,2716.00
2018-11-10T10:57:16.402Z,2968.00
2018-11-10T10:58:16.429Z,3192.00
2018-11-10T10:59:16.456Z,3216.00
2018-11-10T11:00:16.484Z,3288.00
2018-11-10T11:01:16.512Z,3356.00
2018-11-10T11:02:16.540Z,3476.00
2018-11-10T11:03:16.672Z,3584.00
2018-11-10T11:04:16.593Z,3588.00
2018-11-10T11:05:16.619Z,3772.00
2018-11-10T11:06:16.647Z,4168.00
2018-11-10T11:07:16.674Z,4572.00
2018-11-10T11:08:16.701Z,5044.00
2018-11-10T11:09:16.732Z,5428.00
2018-11-10T11:10:16.755Z,5456.00
2018-11-10T11:11:16.784Z,5360.00
2018-11-10T11:12:16.810Z,5236.00
2018-11-10T11:13:16.837Z,5044.00
2018-11-10T11:14:16.865Z,4796.00
2018-11-10T11:15:16.973Z,4580.00
2018-11-10T11:16:16.919Z,4472.00
2018-11-10T11:17:16.946Z,4564.00
2018-11-10T11:18:16.974Z,4628.00
2018-11-10T11:19:17.002Z,4568.00
2018-11-10T11:20:17.031Z,4472.00
2018-11-10T11:21:17.057Z,4728.00
2018-11-10T11:22:17.084Z,5392.00
2018-11-10T11:23:17.111Z,5928.00
2018-11-10T11:24:17.138Z,5940.00
2018-11-10T11:25:17.166Z,5420.00
2018-11-10T11:26:17.194Z,4864.00
2018-11-10T11:27:17.221Z,4648.00
2018-11-10T11:28:17.247Z,4480.00
2018-11-10T11:29:17.478Z,4176.00
2018-11-10T11:30:17.303Z,4252.00
2018-11-10T11:31:17.331Z,4592.00
2018-11-10T11:32:17.357Z,4544.00
2018-11-10T11:33:17.387Z,4484.00
2018-11-10T11:34:17.415Z,4264.00
2018-11-10T11:35:17.513Z,4224.00
2018-11-10T11:36:17.468Z,4064.00
2018-11-10T11:37:17.495Z,3892.00
2018-11-10T11:38:17.524Z,3680.00
2018-11-10T11:39:17.552Z,3400.00
2018-11-10T11:40:17.579Z,3244.00
2018-11-10T11:41:17.719Z,3292.00
2018-11-10T11:42:17.634Z,3456.00
2018-11-10T11:43:17.661Z,3616.00
2018-11-10T11:44:17.688Z,3724.00
2018-11-10T11:45:17.716Z,3728.00
2018-11-10T11:46:17.743Z,3712.00
2018-11-10T11:47:17.771Z,3872.00
2018-11-10T11:48:17.798Z,3976.00
2018-11-10T11:49:17.825Z,4004.00
2018-11-10T11:50:17.853Z,4032.00
2018-11-10T11:51:17.885Z,4092.00
2018-11-10T11:52:17.908Z,4144.00
2018-11-10T11:53:17.937Z,4124.00
2018-11-10T11:54:17.965Z,4088.00
2018-11-10T11:55:17.991Z,4000.00
2018-11-10T11:56:18.017Z,3872.00
2018-11-10T11:57:18.045Z,3724.00
2018-11-10T11:58:18.192Z,3592.00
2018-11-10T11:59:18.101Z,3520.00
2018-11-10T12:00:18.127Z,3468.00
2018-11-10T12:01:18.158Z,3384.00
2018-11-10T12:02:18.289Z,3304.00
2018-11-10T12:03:18.211Z,3264.00
2018-11-10T12:04:18.298Z,3248.00
2018-11-10T12:05:18.265Z,3296.00
2018-11-10T12:06:18.293Z,3392.00
2018-11-10T12:07:18.322Z,3532.00
2018-11-10T12:08:18.348Z,3740.00
2018-11-10T12:09:18.375Z,4040.00
2018-11-10T12:10:18.405Z,4440.00
2018-11-10T12:11:18.431Z,4960.00
2018-11-10T12:12:18.458Z,5888.00
2018-11-10T12:13:18.485Z,7384.00
2018-11-10T12:14:18.513Z,8484.00
2018-11-10T12:15:18.571Z,8852.00
2018-11-10T12:16:27.199Z,8584.00
2018-11-10T12:17:18.599Z,8436.00
2018-11-10T12:18:18.623Z,8364.00
2018-11-10T12:19:18.653Z,8424.00
2018-11-10T12:20:18.684Z,8280.00
2018-11-10T12:21:18.715Z,7884.00
2018-11-10T12:22:18.734Z,7528.00
2018-11-10T12:23:18.761Z,7160.00
2018-11-10T12:24:18.788Z,6776.00
2018-11-10T12:25:18.816Z,6380.00
2018-11-10T12:26:18.847Z,6020.00
2018-11-10T12:27:18.930Z,5720.00
2018-11-10T12:28:18.906Z,5488.00
2018-11-10T12:29:18.929Z,5288.00
2018-11-10T12:30:18.956Z,5116.00
2018-11-10T12:31:18.989Z,4968.00
2018-11-10T12:32:19.011Z,4848.00
2018-11-10T12:33:19.037Z,4748.00
2018-11-10T12:34:19.066Z,4664.00
2018-11-10T12:35:19.094Z,4584.00
2018-11-10T12:36:19.122Z,4496.00
2018-11-10T12:37:19.148Z,4396.00
2018-11-10T12:38:19.177Z,4276.00
2018-11-10T12:39:19.205Z,4140.00
2018-11-10T12:40:19.232Z,4008.00
2018-11-10T12:41:19.260Z,3872.00
2018-11-10T12:42:19.296Z,3736.00
2018-11-10T12:43:19.323Z,3620.00
2018-11-10T12:44:19.342Z,3512.00
2018-11-10T12:45:19.373Z,3412.00
2018-11-10T12:46:19.398Z,3308.00